sensor_id;sensor_type;location;lat;lon;timestamp;P1;durP1;ratioP1;P2;durP2;ratioP2
46551;SDS011;32278;51.810;4.712;2022-09-13T00:01:36;9.43;;;7.38;;
46551;SDS011;32278;51.810;4.712;2022-09-13T00:04:01;13.73;;;10.30;;
46551;SDS011;32278;51.810;4.712;2022-09-13T00:06:28;16.50;;;10.60;;
46551;SDS011;32278;51.810;4.712;2022-09-13T00:08:54;17.15;;;10.05;;
46551;SDS011;32278;51.810;4.712;2022-09-13T00:11:21;16.15;;;10.63;;
46551;SDS011;32278;51.810;4.712;2022-09-13T00:13:48;20.08;;;11.27;;
46551;SDS011;32278;51.810;4.712;2022-09-13T00:16:15;18.88;;;11.52;;
46551;SDS011;32278;51.810;4.712;2022-09-13T00:18:42;19.80;;;10.50;;
46551;SDS011;32278;51.810;4.712;2022-09-13T00:21:09;14.15;;;9.98;;
46551;SDS011;32278;51.810;4.712;2022-09-13T00:23:37;13.40;;;8.93;;
46551;SDS011;32278;51.810;4.712;2022-09-13T00:26:07;16.80;;;10.38;;
46551;SDS011;32278;51.810;4.712;2022-09-13T00:28:35;17.70;;;10.43;;
46551;SDS011;32278;51.810;4.712;2022-09-13T00:31:01;14.18;;;9.85;;
46551;SDS011;32278;51.810;4.712;2022-09-13T00:33:29;14.93;;;9.65;;
46551;SDS011;32278;51.810;4.712;2022-09-13T00:35:55;15.20;;;9.18;;
46551;SDS011;32278;51.810;4.712;2022-09-13T00:38:21;14.55;;;8.63;;
46551;SDS011;32278;51.810;4.712;2022-09-13T00:40:47;10.93;;;7.65;;
46551;SDS011;32278;51.810;4.712;2022-09-13T00:43:20;16.17;;;8.27;;
46551;SDS011;32278;51.810;4.712;2022-09-13T00:46:04;13.77;;;8.30;;
46551;SDS011;32278;51.810;4.712;2022-09-13T00:48:30;11.48;;;8.20;;
46551;SDS011;32278;51.810;4.712;2022-09-13T00:50:58;13.23;;;8.35;;
46551;SDS011;32278;51.810;4.712;2022-09-13T00:53:25;12.02;;;8.18;;
46551;SDS011;32278;51.810;4.712;2022-09-13T00:55:58;11.57;;;7.88;;
46551;SDS011;32278;51.810;4.712;2022-09-13T00:58:33;11.82;;;7.90;;
46551;SDS011;32278;51.810;4.712;2022-09-13T01:01:03;11.60;;;7.53;;
46551;SDS011;32278;51.810;4.712;2022-09-13T01:03:34;10.80;;;8.07;;
46551;SDS011;32278;51.810;4.712;2022-09-13T01:06:04;11.90;;;7.80;;
46551;SDS011;32278;51.810;4.712;2022-09-13T01:08:33;11.30;;;6.85;;
46551;SDS011;32278;51.810;4.712;2022-09-13T01:11:01;9.73;;;7.40;;
46551;SDS011;32278;51.810;4.712;2022-09-13T01:13:30;10.35;;;7.40;;
46551;SDS011;32278;51.810;4.712;2022-09-13T01:15:58;10.77;;;7.20;;
46551;SDS011;32278;51.810;4.712;2022-09-13T01:18:24;12.63;;;7.80;;
46551;SDS011;32278;51.810;4.712;2022-09-13T01:20:59;13.48;;;8.20;;
46551;SDS011;32278;51.810;4.712;2022-09-13T01:23:43;16.55;;;8.10;;
46551;SDS011;32278;51.810;4.712;2022-09-13T01:26:55;13.30;;;7.68;;
46551;SDS011;32278;51.810;4.712;2022-09-13T01:46:18;11.98;;;7.60;;
46551;SDS011;32278;51.810;4.712;2022-09-13T01:49:06;10.50;;;6.97;;
46551;SDS011;32278;51.810;4.712;2022-09-13T01:52:37;9.38;;;7.30;;
46551;SDS011;32278;51.810;4.712;2022-09-13T01:55:01;9.88;;;6.38;;
46551;SDS011;32278;51.810;4.712;2022-09-13T02:00:21;12.00;;;7.65;;
46551;SDS011;32278;51.810;4.712;2022-09-13T02:02:55;10.40;;;7.32;;
46551;SDS011;32278;51.810;4.712;2022-09-13T02:05:39;13.73;;;6.72;;
46551;SDS011;32278;51.810;4.712;2022-09-13T02:08:14;17.67;;;8.05;;
46551;SDS011;32278;51.810;4.712;2022-09-13T02:10:52;15.00;;;6.75;;
46551;SDS011;32278;51.810;4.712;2022-09-13T02:13:25;12.77;;;7.18;;
46551;SDS011;32278;51.810;4.712;2022-09-13T02:15:56;11.75;;;7.28;;
46551;SDS011;32278;51.810;4.712;2022-09-13T02:20:57;10.50;;;6.90;;
46551;SDS011;32278;51.810;4.712;2022-09-13T02:23:37;12.23;;;7.50;;
46551;SDS011;32278;51.810;4.712;2022-09-13T02:26:07;11.05;;;7.07;;
46551;SDS011;32278;51.810;4.712;2022-09-13T02:28:37;10.40;;;6.68;;
46551;SDS011;32278;51.810;4.712;2022-09-13T02:31:08;12.55;;;7.35;;
46551;SDS011;32278;51.810;4.712;2022-09-13T02:33:47;10.90;;;7.18;;
46551;SDS011;32278;51.810;4.712;2022-09-13T02:36:22;12.48;;;7.35;;
46551;SDS011;32278;51.810;4.712;2022-09-13T02:38:53;14.20;;;8.07;;
46551;SDS011;32278;51.810;4.712;2022-09-13T02:44:12;12.65;;;7.50;;
46551;SDS011;32278;51.810;4.712;2022-09-13T02:49:56;12.32;;;7.13;;
46551;SDS011;32278;51.810;4.712;2022-09-13T02:52:33;11.95;;;7.85;;
46551;SDS011;32278;51.810;4.712;2022-09-13T02:57:49;10.68;;;7.13;;
46551;SDS011;32278;51.810;4.712;2022-09-13T03:00:19;12.93;;;7.68;;
46551;SDS011;32278;51.810;4.712;2022-09-13T03:02:45;11.88;;;7.47;;
46551;SDS011;32278;51.810;4.712;2022-09-13T03:05:14;14.40;;;7.55;;
46551;SDS011;32278;51.810;4.712;2022-09-13T03:07:40;12.00;;;7.60;;
46551;SDS011;32278;51.810;4.712;2022-09-13T03:10:06;13.00;;;7.60;;
46551;SDS011;32278;51.810;4.712;2022-09-13T03:15:19;12.35;;;7.93;;
46551;SDS011;32278;51.810;4.712;2022-09-13T03:23:33;9.75;;;7.22;;
46551;SDS011;32278;51.810;4.712;2022-09-13T03:29:05;9.32;;;7.03;;
46551;SDS011;32278;51.810;4.712;2022-09-13T03:32:01;13.35;;;7.60;;
46551;SDS011;32278;51.810;4.712;2022-09-13T03:42:31;10.25;;;7.45;;
46551;SDS011;32278;51.810;4.712;2022-09-13T03:45:20;14.98;;;8.00;;
46551;SDS011;32278;51.810;4.712;2022-09-13T03:47:51;13.57;;;7.27;;
46551;SDS011;32278;51.810;4.712;2022-09-13T03:50:19;15.05;;;7.57;;
46551;SDS011;32278;51.810;4.712;2022-09-13T03:52:47;15.18;;;7.65;;
46551;SDS011;32278;51.810;4.712;2022-09-13T03:55:21;12.35;;;7.75;;
46551;SDS011;32278;51.810;4.712;2022-09-13T03:57:47;14.80;;;8.35;;
46551;SDS011;32278;51.810;4.712;2022-09-13T04:00:13;14.10;;;8.25;;
46551;SDS011;32278;51.810;4.712;2022-09-13T04:02:39;11.57;;;7.32;;
46551;SDS011;32278;51.810;4.712;2022-09-13T04:05:05;12.75;;;7.55;;
46551;SDS011;32278;51.810;4.712;2022-09-13T04:07:31;10.27;;;6.65;;
46551;SDS011;32278;51.810;4.712;2022-09-13T04:09:56;12.25;;;7.43;;
46551;SDS011;32278;51.810;4.712;2022-09-13T04:12:22;10.63;;;6.78;;
46551;SDS011;32278;51.810;4.712;2022-09-13T04:14:47;11.05;;;7.40;;
46551;SDS011;32278;51.810;4.712;2022-09-13T04:17:13;13.50;;;7.65;;
46551;SDS011;32278;51.810;4.712;2022-09-13T04:19:39;12.77;;;7.90;;
46551;SDS011;32278;51.810;4.712;2022-09-13T04:22:05;13.23;;;7.68;;
46551;SDS011;32278;51.810;4.712;2022-09-13T04:24:31;14.00;;;7.90;;
46551;SDS011;32278;51.810;4.712;2022-09-13T04:26:57;12.40;;;7.65;;
46551;SDS011;32278;51.810;4.712;2022-09-13T04:29:23;13.75;;;8.55;;
46551;SDS011;32278;51.810;4.712;2022-09-13T04:31:50;13.25;;;7.93;;
46551;SDS011;32278;51.810;4.712;2022-09-13T04:34:17;12.95;;;8.80;;
46551;SDS011;32278;51.810;4.712;2022-09-13T04:36:43;13.57;;;7.72;;
46551;SDS011;32278;51.810;4.712;2022-09-13T04:39:09;12.55;;;8.98;;
46551;SDS011;32278;51.810;4.712;2022-09-13T04:41:37;12.38;;;7.97;;
46551;SDS011;32278;51.810;4.712;2022-09-13T04:44:05;11.77;;;8.32;;
46551;SDS011;32278;51.810;4.712;2022-09-13T04:46:30;12.63;;;7.78;;
46551;SDS011;32278;51.810;4.712;2022-09-13T04:48:56;12.95;;;8.57;;
46551;SDS011;32278;51.810;4.712;2022-09-13T04:51:22;11.05;;;7.35;;
46551;SDS011;32278;51.810;4.712;2022-09-13T04:53:52;11.50;;;7.80;;
46551;SDS011;32278;51.810;4.712;2022-09-13T04:56:19;15.90;;;8.07;;
46551;SDS011;32278;51.810;4.712;2022-09-13T04:58:45;12.27;;;8.02;;
46551;SDS011;32278;51.810;4.712;2022-09-13T05:01:11;14.18;;;8.13;;
46551;SDS011;32278;51.810;4.712;2022-09-13T05:03:36;13.75;;;8.65;;
46551;SDS011;32278;51.810;4.712;2022-09-13T05:08:35;19.30;;;9.68;;
46551;SDS011;32278;51.810;4.712;2022-09-13T05:11:01;20.33;;;10.27;;
46551;SDS011;32278;51.810;4.712;2022-09-13T05:13:28;16.95;;;9.90;;
46551;SDS011;32278;51.810;4.712;2022-09-13T05:15:57;19.65;;;9.88;;
46551;SDS011;32278;51.810;4.712;2022-09-13T05:18:27;20.38;;;9.88;;
46551;SDS011;32278;51.810;4.712;2022-09-13T05:20:56;20.52;;;10.75;;
46551;SDS011;32278;51.810;4.712;2022-09-13T05:23:23;26.52;;;11.65;;
46551;SDS011;32278;51.810;4.712;2022-09-13T05:25:53;18.23;;;10.68;;
46551;SDS011;32278;51.810;4.712;2022-09-13T05:28:30;20.30;;;10.48;;
46551;SDS011;32278;51.810;4.712;2022-09-13T05:30:58;16.73;;;9.68;;
46551;SDS011;32278;51.810;4.712;2022-09-13T05:33:26;17.17;;;10.68;;
46551;SDS011;32278;51.810;4.712;2022-09-13T05:35:53;18.52;;;10.57;;
46551;SDS011;32278;51.810;4.712;2022-09-13T05:38:19;21.17;;;11.38;;
46551;SDS011;32278;51.810;4.712;2022-09-13T05:40:46;18.10;;;10.98;;
46551;SDS011;32278;51.810;4.712;2022-09-13T05:43:11;24.10;;;11.10;;
46551;SDS011;32278;51.810;4.712;2022-09-13T05:45:37;17.15;;;9.98;;
46551;SDS011;32278;51.810;4.712;2022-09-13T05:48:03;18.33;;;10.32;;
46551;SDS011;32278;51.810;4.712;2022-09-13T05:50:29;18.98;;;11.25;;
46551;SDS011;32278;51.810;4.712;2022-09-13T05:52:54;19.30;;;11.48;;
46551;SDS011;32278;51.810;4.712;2022-09-13T05:55:20;20.35;;;10.70;;
46551;SDS011;32278;51.810;4.712;2022-09-13T05:57:47;14.82;;;9.95;;
46551;SDS011;32278;51.810;4.712;2022-09-13T06:00:13;19.30;;;10.73;;
46551;SDS011;32278;51.810;4.712;2022-09-13T06:02:40;16.58;;;10.75;;
46551;SDS011;32278;51.810;4.712;2022-09-13T06:05:06;22.80;;;11.40;;
46551;SDS011;32278;51.810;4.712;2022-09-13T06:07:34;16.45;;;10.20;;
46551;SDS011;32278;51.810;4.712;2022-09-13T06:10:00;16.05;;;10.38;;
46551;SDS011;32278;51.810;4.712;2022-09-13T06:12:26;16.73;;;10.38;;
46551;SDS011;32278;51.810;4.712;2022-09-13T06:14:51;21.55;;;10.60;;
46551;SDS011;32278;51.810;4.712;2022-09-13T06:17:17;16.92;;;10.38;;
46551;SDS011;32278;51.810;4.712;2022-09-13T06:19:42;14.27;;;9.77;;
46551;SDS011;32278;51.810;4.712;2022-09-13T06:22:08;17.73;;;9.98;;
46551;SDS011;32278;51.810;4.712;2022-09-13T06:24:34;18.80;;;9.88;;
46551;SDS011;32278;51.810;4.712;2022-09-13T06:27:01;18.13;;;10.63;;
46551;SDS011;32278;51.810;4.712;2022-09-13T06:29:27;21.90;;;10.70;;
46551;SDS011;32278;51.810;4.712;2022-09-13T06:31:52;18.55;;;10.23;;
46551;SDS011;32278;51.810;4.712;2022-09-13T06:34:19;17.83;;;10.82;;
46551;SDS011;32278;51.810;4.712;2022-09-13T06:36:44;20.67;;;10.73;;
46551;SDS011;32278;51.810;4.712;2022-09-13T06:39:10;21.00;;;10.63;;
46551;SDS011;32278;51.810;4.712;2022-09-13T06:41:36;22.08;;;12.45;;
46551;SDS011;32278;51.810;4.712;2022-09-13T06:44:02;22.63;;;11.75;;
46551;SDS011;32278;51.810;4.712;2022-09-13T06:46:28;24.10;;;12.88;;
46551;SDS011;32278;51.810;4.712;2022-09-13T06:48:57;20.83;;;12.98;;
46551;SDS011;32278;51.810;4.712;2022-09-13T06:51:24;23.98;;;12.80;;
46551;SDS011;32278;51.810;4.712;2022-09-13T06:53:51;27.25;;;14.20;;
46551;SDS011;32278;51.810;4.712;2022-09-13T06:56:24;25.15;;;13.68;;
46551;SDS011;32278;51.810;4.712;2022-09-13T06:58:57;22.42;;;13.85;;
46551;SDS011;32278;51.810;4.712;2022-09-13T07:01:27;25.35;;;13.65;;
46551;SDS011;32278;51.810;4.712;2022-09-13T07:04:01;24.27;;;12.65;;
46551;SDS011;32278;51.810;4.712;2022-09-13T07:06:31;28.02;;;13.85;;
46551;SDS011;32278;51.810;4.712;2022-09-13T07:09:00;26.92;;;13.98;;
46551;SDS011;32278;51.810;4.712;2022-09-13T07:11:28;24.45;;;12.85;;
46551;SDS011;32278;51.810;4.712;2022-09-13T07:13:57;22.05;;;12.32;;
46551;SDS011;32278;51.810;4.712;2022-09-13T07:16:24;23.15;;;12.60;;
46551;SDS011;32278;51.810;4.712;2022-09-13T07:18:52;16.17;;;10.30;;
46551;SDS011;32278;51.810;4.712;2022-09-13T07:21:19;18.35;;;10.25;;
46551;SDS011;32278;51.810;4.712;2022-09-13T07:23:46;13.77;;;9.07;;
46551;SDS011;32278;51.810;4.712;2022-09-13T07:26:12;14.40;;;7.53;;
46551;SDS011;32278;51.810;4.712;2022-09-13T07:28:40;11.55;;;7.10;;
46551;SDS011;32278;51.810;4.712;2022-09-13T07:33:41;10.75;;;5.63;;
46551;SDS011;32278;51.810;4.712;2022-09-13T07:36:08;10.15;;;5.20;;
46551;SDS011;32278;51.810;4.712;2022-09-13T07:38:35;8.00;;;5.20;;
46551;SDS011;32278;51.810;4.712;2022-09-13T07:41:03;8.05;;;4.68;;
46551;SDS011;32278;51.810;4.712;2022-09-13T07:43:31;8.50;;;4.57;;
46551;SDS011;32278;51.810;4.712;2022-09-13T07:46:01;8.13;;;4.38;;
46551;SDS011;32278;51.810;4.712;2022-09-13T07:48:32;6.40;;;3.15;;
46551;SDS011;32278;51.810;4.712;2022-09-13T07:51:00;5.15;;;3.28;;
46551;SDS011;32278;51.810;4.712;2022-09-13T07:53:35;7.78;;;3.70;;
46551;SDS011;32278;51.810;4.712;2022-09-13T07:58:35;5.07;;;2.72;;
46551;SDS011;32278;51.810;4.712;2022-09-13T08:01:23;6.18;;;2.60;;
46551;SDS011;32278;51.810;4.712;2022-09-13T08:03:49;2.97;;;1.50;;
46551;SDS011;32278;51.810;4.712;2022-09-13T08:06:23;2.33;;;1.73;;
46551;SDS011;32278;51.810;4.712;2022-09-13T08:08:49;3.42;;;2.20;;
46551;SDS011;32278;51.810;4.712;2022-09-13T08:11:19;3.88;;;3.00;;
46551;SDS011;32278;51.810;4.712;2022-09-13T08:13:48;3.10;;;1.52;;
46551;SDS011;32278;51.810;4.712;2022-09-13T08:16:16;4.90;;;1.73;;
46551;SDS011;32278;51.810;4.712;2022-09-13T08:18:46;2.25;;;1.65;;
46551;SDS011;32278;51.810;4.712;2022-09-13T08:21:13;4.35;;;2.17;;
46551;SDS011;32278;51.810;4.712;2022-09-13T08:23:39;5.93;;;2.05;;
46551;SDS011;32278;51.810;4.712;2022-09-13T08:26:06;4.32;;;1.67;;
46551;SDS011;32278;51.810;4.712;2022-09-13T08:28:32;2.55;;;1.50;;
46551;SDS011;32278;51.810;4.712;2022-09-13T08:31:12;4.93;;;2.30;;
46551;SDS011;32278;51.810;4.712;2022-09-13T08:33:41;1.80;;;1.65;;
46551;SDS011;32278;51.810;4.712;2022-09-13T08:36:08;2.90;;;2.28;;
46551;SDS011;32278;51.810;4.712;2022-09-13T08:38:33;4.20;;;1.60;;
46551;SDS011;32278;51.810;4.712;2022-09-13T08:41:01;1.38;;;1.27;;
46551;SDS011;32278;51.810;4.712;2022-09-13T08:43:43;3.65;;;1.30;;
46551;SDS011;32278;51.810;4.712;2022-09-13T08:46:25;1.63;;;1.35;;
46551;SDS011;32278;51.810;4.712;2022-09-13T08:49:00;3.22;;;1.42;;
46551;SDS011;32278;51.810;4.712;2022-09-13T08:51:32;1.70;;;1.50;;
46551;SDS011;32278;51.810;4.712;2022-09-13T08:54:02;2.72;;;1.80;;
46551;SDS011;32278;51.810;4.712;2022-09-13T08:57:15;2.78;;;2.10;;
46551;SDS011;32278;51.810;4.712;2022-09-13T08:59:32;2.63;;;1.60;;
46551;SDS011;32278;51.810;4.712;2022-09-13T09:05:28;3.40;;;1.45;;
46551;SDS011;32278;51.810;4.712;2022-09-13T09:08:09;3.92;;;1.92;;
46551;SDS011;32278;51.810;4.712;2022-09-13T09:10:40;2.45;;;1.55;;
46551;SDS011;32278;51.810;4.712;2022-09-13T09:20:45;6.03;;;3.45;;
46551;SDS011;32278;51.810;4.712;2022-09-13T09:23:13;4.25;;;3.03;;
46551;SDS011;32278;51.810;4.712;2022-09-13T09:28:42;6.82;;;3.97;;
46551;SDS011;32278;51.810;4.712;2022-09-13T09:31:19;7.03;;;3.70;;
46551;SDS011;32278;51.810;4.712;2022-09-13T09:36:43;6.35;;;4.22;;
46551;SDS011;32278;51.810;4.712;2022-09-13T09:39:15;10.02;;;6.32;;
46551;SDS011;32278;51.810;4.712;2022-09-13T09:41:41;11.05;;;4.53;;
46551;SDS011;32278;51.810;4.712;2022-09-13T09:44:18;5.00;;;3.35;;
46551;SDS011;32278;51.810;4.712;2022-09-13T09:47:05;4.93;;;3.10;;
46551;SDS011;32278;51.810;4.712;2022-09-13T09:49:41;4.03;;;3.08;;
46551;SDS011;32278;51.810;4.712;2022-09-13T09:52:37;5.85;;;3.10;;
46551;SDS011;32278;51.810;4.712;2022-09-13T09:55:27;6.65;;;3.35;;
46551;SDS011;32278;51.810;4.712;2022-09-13T10:00:20;6.63;;;3.30;;
46551;SDS011;32278;51.810;4.712;2022-09-13T10:02:48;5.85;;;2.88;;
46551;SDS011;32278;51.810;4.712;2022-09-13T10:05:17;6.38;;;3.20;;
46551;SDS011;32278;51.810;4.712;2022-09-13T10:07:48;9.88;;;4.22;;
46551;SDS011;32278;51.810;4.712;2022-09-13T10:10:26;2.70;;;2.30;;
46551;SDS011;32278;51.810;4.712;2022-09-13T10:12:54;3.45;;;2.33;;
46551;SDS011;32278;51.810;4.712;2022-09-13T10:15:22;6.80;;;2.63;;
46551;SDS011;32278;51.810;4.712;2022-09-13T10:18:05;3.28;;;2.25;;
46551;SDS011;32278;51.810;4.712;2022-09-13T10:20:40;4.93;;;2.25;;
46551;SDS011;32278;51.810;4.712;2022-09-13T10:23:16;6.63;;;2.67;;
46551;SDS011;32278;51.810;4.712;2022-09-13T10:25:44;3.83;;;2.30;;
46551;SDS011;32278;51.810;4.712;2022-09-13T10:28:27;7.18;;;2.20;;
46551;SDS011;32278;51.810;4.712;2022-09-13T10:30:57;2.78;;;2.38;;
46551;SDS011;32278;51.810;4.712;2022-09-13T10:36:11;4.07;;;2.03;;
46551;SDS011;32278;51.810;4.712;2022-09-13T10:38:41;3.15;;;2.60;;
46551;SDS011;32278;51.810;4.712;2022-09-13T10:41:32;2.08;;;1.67;;
46551;SDS011;32278;51.810;4.712;2022-09-13T10:44:03;2.35;;;1.60;;
46551;SDS011;32278;51.810;4.712;2022-09-13T10:46:31;5.00;;;1.65;;
46551;SDS011;32278;51.810;4.712;2022-09-13T10:49:00;2.35;;;1.10;;
46551;SDS011;32278;51.810;4.712;2022-09-13T10:56:35;2.10;;;1.45;;
46551;SDS011;32278;51.810;4.712;2022-09-13T11:04:58;9.27;;;2.35;;
46551;SDS011;32278;51.810;4.712;2022-09-13T11:07:38;3.10;;;1.80;;
46551;SDS011;32278;51.810;4.712;2022-09-13T11:13:06;1.67;;;1.15;;
46551;SDS011;32278;51.810;4.712;2022-09-13T11:27:06;6.72;;;1.17;;
46551;SDS011;32278;51.810;4.712;2022-09-13T11:32:38;1.73;;;1.20;;
46551;SDS011;32278;51.810;4.712;2022-09-13T11:37:58;2.83;;;1.10;;
46551;SDS011;32278;51.810;4.712;2022-09-13T11:55:02;1.33;;;1.00;;
46551;SDS011;32278;51.810;4.712;2022-09-13T11:57:46;2.63;;;0.90;;
46551;SDS011;32278;51.810;4.712;2022-09-13T12:00:20;5.30;;;1.10;;
46551;SDS011;32278;51.810;4.712;2022-09-13T12:03:14;2.10;;;1.20;;
46551;SDS011;32278;51.810;4.712;2022-09-13T12:06:13;3.28;;;1.33;;
46551;SDS011;32278;51.810;4.712;2022-09-13T12:11:12;1.50;;;0.90;;
46551;SDS011;32278;51.810;4.712;2022-09-13T12:14:02;3.97;;;1.63;;
46551;SDS011;32278;51.810;4.712;2022-09-13T12:16:31;0.73;;;0.70;;
46551;SDS011;32278;51.810;4.712;2022-09-13T12:19:01;2.30;;;1.00;;
46551;SDS011;32278;51.810;4.712;2022-09-13T12:21:44;1.17;;;0.93;;
46551;SDS011;32278;51.810;4.712;2022-09-13T12:24:13;1.92;;;0.80;;
46551;SDS011;32278;51.810;4.712;2022-09-13T12:27:01;2.00;;;0.90;;
46551;SDS011;32278;51.810;4.712;2022-09-13T12:32:13;1.27;;;0.93;;
46551;SDS011;32278;51.810;4.712;2022-09-13T12:34:52;3.72;;;0.60;;
46551;SDS011;32278;51.810;4.712;2022-09-13T12:44:01;0.95;;;0.60;;
46551;SDS011;32278;51.810;4.712;2022-09-13T12:46:00;2.67;;;0.63;;
46551;SDS011;32278;51.810;4.712;2022-09-13T12:51:19;1.77;;;0.82;;
46551;SDS011;32278;51.810;4.712;2022-09-13T12:54:24;3.92;;;1.00;;
46551;SDS011;32278;51.810;4.712;2022-09-13T12:57:12;2.45;;;1.00;;
46551;SDS011;32278;51.810;4.712;2022-09-13T13:00:29;2.58;;;1.00;;
46551;SDS011;32278;51.810;4.712;2022-09-13T13:03:04;5.25;;;1.45;;
46551;SDS011;32278;51.810;4.712;2022-09-13T13:05:42;1.55;;;0.65;;
46551;SDS011;32278;51.810;4.712;2022-09-13T13:10:59;1.42;;;0.90;;
46551;SDS011;32278;51.810;4.712;2022-09-13T13:16:05;1.52;;;0.70;;
46551;SDS011;32278;51.810;4.712;2022-09-13T13:18:50;2.65;;;1.13;;
46551;SDS011;32278;51.810;4.712;2022-09-13T13:21:38;2.38;;;0.93;;
46551;SDS011;32278;51.810;4.712;2022-09-13T13:37:38;4.50;;;0.90;;
46551;SDS011;32278;51.810;4.712;2022-09-13T13:42:45;5.07;;;1.20;;
46551;SDS011;32278;51.810;4.712;2022-09-13T13:45:15;5.75;;;0.65;;
46551;SDS011;32278;51.810;4.712;2022-09-13T13:53:44;1.85;;;0.70;;
46551;SDS011;32278;51.810;4.712;2022-09-13T13:56:31;3.15;;;0.70;;
46551;SDS011;32278;51.810;4.712;2022-09-13T14:01:38;3.83;;;0.98;;
46551;SDS011;32278;51.810;4.712;2022-09-13T14:06:48;3.78;;;0.80;;
46551;SDS011;32278;51.810;4.712;2022-09-13T14:09:26;1.58;;;1.35;;
46551;SDS011;32278;51.810;4.712;2022-09-13T14:12:09;3.95;;;0.60;;
46551;SDS011;32278;51.810;4.712;2022-09-13T14:19:54;3.88;;;0.77;;
46551;SDS011;32278;51.810;4.712;2022-09-13T14:22:25;2.22;;;0.95;;
46551;SDS011;32278;51.810;4.712;2022-09-13T14:24:53;1.70;;;0.90;;
46551;SDS011;32278;51.810;4.712;2022-09-13T14:27:22;2.78;;;0.90;;
46551;SDS011;32278;51.810;4.712;2022-09-13T14:29:53;1.02;;;0.77;;
46551;SDS011;32278;51.810;4.712;2022-09-13T14:32:24;3.08;;;1.23;;
46551;SDS011;32278;51.810;4.712;2022-09-13T14:34:57;6.60;;;0.80;;
46551;SDS011;32278;51.810;4.712;2022-09-13T14:37:33;6.13;;;0.60;;
46551;SDS011;32278;51.810;4.712;2022-09-13T14:40:10;0.90;;;0.70;;
46551;SDS011;32278;51.810;4.712;2022-09-13T14:42:47;3.00;;;0.93;;
46551;SDS011;32278;51.810;4.712;2022-09-13T14:45:15;4.10;;;0.73;;
46551;SDS011;32278;51.810;4.712;2022-09-13T14:47:59;5.57;;;0.77;;
46551;SDS011;32278;51.810;4.712;2022-09-13T14:50:27;2.97;;;1.20;;
46551;SDS011;32278;51.810;4.712;2022-09-13T14:52:57;1.65;;;0.68;;
46551;SDS011;32278;51.810;4.712;2022-09-13T14:55:35;3.33;;;0.70;;
46551;SDS011;32278;51.810;4.712;2022-09-13T14:58:21;0.55;;;0.55;;
46551;SDS011;32278;51.810;4.712;2022-09-13T15:00:54;2.17;;;0.75;;
46551;SDS011;32278;51.810;4.712;2022-09-13T15:03:32;1.52;;;0.60;;
46551;SDS011;32278;51.810;4.712;2022-09-13T15:05:59;1.23;;;0.40;;
46551;SDS011;32278;51.810;4.712;2022-09-13T15:10:52;1.95;;;0.60;;
46551;SDS011;32278;51.810;4.712;2022-09-13T15:13:21;1.85;;;0.50;;
46551;SDS011;32278;51.810;4.712;2022-09-13T15:15:47;5.00;;;0.50;;
46551;SDS011;32278;51.810;4.712;2022-09-13T15:23:17;3.50;;;0.60;;
46551;SDS011;32278;51.810;4.712;2022-09-13T15:25:58;1.73;;;0.77;;
46551;SDS011;32278;51.810;4.712;2022-09-13T15:28:30;3.20;;;0.85;;
46551;SDS011;32278;51.810;4.712;2022-09-13T15:31:19;2.17;;;0.63;;
46551;SDS011;32278;51.810;4.712;2022-09-13T15:33:46;1.77;;;0.70;;
46551;SDS011;32278;51.810;4.712;2022-09-13T15:41:28;1.92;;;0.40;;
46551;SDS011;32278;51.810;4.712;2022-09-13T15:43:59;1.95;;;1.02;;
46551;SDS011;32278;51.810;4.712;2022-09-13T15:46:25;2.95;;;0.70;;
46551;SDS011;32278;51.810;4.712;2022-09-13T15:48:53;3.33;;;0.40;;
46551;SDS011;32278;51.810;4.712;2022-09-13T15:51:22;1.25;;;0.52;;
46551;SDS011;32278;51.810;4.712;2022-09-13T15:53:48;1.55;;;0.52;;
46551;SDS011;32278;51.810;4.712;2022-09-13T15:56:16;1.27;;;0.43;;
46551;SDS011;32278;51.810;4.712;2022-09-13T15:58:44;3.67;;;0.88;;
46551;SDS011;32278;51.810;4.712;2022-09-13T16:01:13;1.20;;;0.40;;
46551;SDS011;32278;51.810;4.712;2022-09-13T16:03:40;1.10;;;0.50;;
46551;SDS011;32278;51.810;4.712;2022-09-13T16:06:06;4.95;;;0.75;;
46551;SDS011;32278;51.810;4.712;2022-09-13T16:08:33;6.15;;;1.42;;
46551;SDS011;32278;51.810;4.712;2022-09-13T16:11:02;4.95;;;0.85;;
46551;SDS011;32278;51.810;4.712;2022-09-13T16:13:29;3.15;;;1.83;;
46551;SDS011;32278;51.810;4.712;2022-09-13T16:15:55;1.80;;;0.77;;
46551;SDS011;32278;51.810;4.712;2022-09-13T16:18:21;1.95;;;0.57;;
46551;SDS011;32278;51.810;4.712;2022-09-13T16:20:47;1.38;;;0.90;;
46551;SDS011;32278;51.810;4.712;2022-09-13T16:23:13;3.47;;;0.90;;
46551;SDS011;32278;51.810;4.712;2022-09-13T16:25:39;3.88;;;1.27;;
46551;SDS011;32278;51.810;4.712;2022-09-13T16:28:05;6.22;;;1.17;;
46551;SDS011;32278;51.810;4.712;2022-09-13T16:30:32;2.08;;;0.70;;
46551;SDS011;32278;51.810;4.712;2022-09-13T16:32:58;2.47;;;1.00;;
46551;SDS011;32278;51.810;4.712;2022-09-13T16:35:25;4.65;;;1.50;;
46551;SDS011;32278;51.810;4.712;2022-09-13T16:37:52;6.30;;;1.20;;
46551;SDS011;32278;51.810;4.712;2022-09-13T16:40:18;4.40;;;1.48;;
46551;SDS011;32278;51.810;4.712;2022-09-13T16:42:44;4.97;;;2.17;;
46551;SDS011;32278;51.810;4.712;2022-09-13T16:45:10;4.25;;;1.48;;
46551;SDS011;32278;51.810;4.712;2022-09-13T16:47:36;4.38;;;1.10;;
46551;SDS011;32278;51.810;4.712;2022-09-13T16:50:02;2.15;;;1.00;;
46551;SDS011;32278;51.810;4.712;2022-09-13T16:52:30;2.00;;;1.13;;
46551;SDS011;32278;51.810;4.712;2022-09-13T16:54:55;1.73;;;0.77;;
46551;SDS011;32278;51.810;4.712;2022-09-13T16:57:21;1.88;;;0.70;;
46551;SDS011;32278;51.810;4.712;2022-09-13T16:59:48;3.67;;;0.82;;
46551;SDS011;32278;51.810;4.712;2022-09-13T17:02:16;3.33;;;1.10;;
46551;SDS011;32278;51.810;4.712;2022-09-13T17:04:42;5.18;;;0.93;;
46551;SDS011;32278;51.810;4.712;2022-09-13T17:07:08;1.85;;;0.60;;
46551;SDS011;32278;51.810;4.712;2022-09-13T17:09:34;1.85;;;0.77;;
46551;SDS011;32278;51.810;4.712;2022-09-13T17:11:59;5.97;;;0.93;;
46551;SDS011;32278;51.810;4.712;2022-09-13T17:14:26;4.97;;;1.08;;
46551;SDS011;32278;51.810;4.712;2022-09-13T17:16:52;3.03;;;0.75;;
46551;SDS011;32278;51.810;4.712;2022-09-13T17:19:26;4.55;;;0.68;;
46551;SDS011;32278;51.810;4.712;2022-09-13T17:22:00;5.82;;;0.70;;
46551;SDS011;32278;51.810;4.712;2022-09-13T17:24:27;3.10;;;0.90;;
46551;SDS011;32278;51.810;4.712;2022-09-13T17:26:55;2.47;;;0.80;;
46551;SDS011;32278;51.810;4.712;2022-09-13T17:29:20;0.52;;;0.50;;
46551;SDS011;32278;51.810;4.712;2022-09-13T17:31:46;6.88;;;0.80;;
46551;SDS011;32278;51.810;4.712;2022-09-13T17:34:12;5.95;;;1.27;;
46551;SDS011;32278;51.810;4.712;2022-09-13T17:36:39;2.03;;;1.40;;
46551;SDS011;32278;51.810;4.712;2022-09-13T17:39:05;5.55;;;0.93;;
46551;SDS011;32278;51.810;4.712;2022-09-13T17:41:31;2.90;;;0.80;;
46551;SDS011;32278;51.810;4.712;2022-09-13T17:43:56;3.47;;;1.35;;
46551;SDS011;32278;51.810;4.712;2022-09-13T17:46:24;5.38;;;1.00;;
46551;SDS011;32278;51.810;4.712;2022-09-13T17:48:52;7.07;;;1.45;;
46551;SDS011;32278;51.810;4.712;2022-09-13T17:51:19;4.03;;;0.93;;
46551;SDS011;32278;51.810;4.712;2022-09-13T17:53:50;5.55;;;1.10;;
46551;SDS011;32278;51.810;4.712;2022-09-13T17:56:22;3.08;;;0.95;;
46551;SDS011;32278;51.810;4.712;2022-09-13T17:58:53;3.28;;;0.88;;
46551;SDS011;32278;51.810;4.712;2022-09-13T18:01:37;3.78;;;0.90;;
46551;SDS011;32278;51.810;4.712;2022-09-13T18:04:04;7.03;;;1.15;;
46551;SDS011;32278;51.810;4.712;2022-09-13T18:06:31;2.55;;;0.90;;
46551;SDS011;32278;51.810;4.712;2022-09-13T18:08:57;2.88;;;1.15;;
46551;SDS011;32278;51.810;4.712;2022-09-13T18:11:22;2.40;;;1.13;;
46551;SDS011;32278;51.810;4.712;2022-09-13T18:13:48;4.22;;;1.15;;